createdAt,value
2019-03-19T00:00:25.935Z,7.48
2019-03-19T00:02:55.120Z,7.48
2019-03-19T00:05:24.369Z,7.39
2019-03-19T00:07:53.703Z,7.33
2019-03-19T00:10:22.959Z,7.42
2019-03-19T00:12:52.147Z,7.44
2019-03-19T00:15:21.328Z,7.39
2019-03-19T00:17:50.530Z,7.38
2019-03-19T00:20:19.755Z,7.35
2019-03-19T00:22:48.852Z,7.33
2019-03-19T00:25:29.110Z,7.23
2019-03-19T00:27:49.019Z,7.18
2019-03-19T00:30:18.781Z,7.20
2019-03-19T00:32:48.011Z,7.19
2019-03-19T00:35:17.177Z,7.15
2019-03-19T00:37:46.391Z,7.22
2019-03-19T00:40:16.514Z,7.19
2019-03-19T00:42:45.688Z,7.32
2019-03-19T00:45:15.112Z,7.40
2019-03-19T00:47:44.339Z,7.36
2019-03-19T00:50:16.627Z,7.34
2019-03-19T00:52:45.799Z,7.37
2019-03-19T00:55:15.109Z,7.40
2019-03-19T00:57:44.294Z,7.30
2019-03-19T01:00:18.067Z,7.37
2019-03-19T01:02:47.275Z,7.45
2019-03-19T01:05:16.450Z,7.40
2019-03-19T01:07:45.615Z,7.04
2019-03-19T01:10:17.496Z,7.21
2019-03-19T01:12:46.136Z,7.24
2019-03-19T01:15:15.602Z,7.28
2019-03-19T01:17:44.772Z,7.25
2019-03-19T01:20:15.394Z,7.37
2019-03-19T01:22:44.579Z,7.12
2019-03-19T01:25:13.749Z,7.07
2019-03-19T01:27:42.968Z,7.01
2019-03-19T01:30:16.513Z,7.11
2019-03-19T01:32:45.684Z,6.92
2019-03-19T01:35:14.943Z,6.81
2019-03-19T01:37:44.111Z,6.85
2019-03-19T01:40:13.677Z,6.67
2019-03-19T01:42:42.850Z,6.52
2019-03-19T01:45:13.256Z,6.60
2019-03-19T01:47:42.511Z,6.42
2019-03-19T01:50:16.125Z,6.52
2019-03-19T01:52:45.315Z,6.48
2019-03-19T01:55:15.434Z,6.49
2019-03-19T01:57:44.606Z,6.54
2019-03-19T02:00:16.388Z,6.73
2019-03-19T02:02:45.554Z,6.71
2019-03-19T02:05:14.854Z,6.56
2019-03-19T02:07:44.015Z,6.43
2019-03-19T02:10:14.217Z,6.32
2019-03-19T02:12:43.462Z,6.47
2019-03-19T02:15:14.997Z,6.39
2019-03-19T02:17:44.269Z,6.48
2019-03-19T02:20:14.979Z,6.59
2019-03-19T02:22:44.219Z,6.74
2019-03-19T02:25:13.393Z,6.64
2019-03-19T02:27:42.558Z,6.67
2019-03-19T02:30:14.330Z,6.73
2019-03-19T02:32:43.524Z,6.80
2019-03-19T02:35:12.867Z,6.73
2019-03-19T02:37:42.039Z,6.83
2019-03-19T02:40:13.261Z,6.61
2019-03-19T02:42:42.486Z,6.76
2019-03-19T02:45:12.897Z,6.58
2019-03-19T02:47:42.079Z,6.65
2019-03-19T02:50:13.000Z,6.48
2019-03-19T02:52:42.215Z,6.39
2019-03-19T02:55:11.453Z,6.46
2019-03-19T02:57:40.635Z,6.51
2019-03-19T03:00:14.668Z,6.39
2019-03-19T03:02:43.858Z,6.45
2019-03-19T03:05:20.131Z,6.64
2019-03-19T03:07:49.372Z,6.74
2019-03-19T03:10:18.699Z,6.63
2019-03-19T03:12:47.977Z,6.43
2019-03-19T03:15:17.133Z,6.27
2019-03-19T03:17:46.309Z,6.18
2019-03-19T03:20:16.400Z,6.31
2019-03-19T03:22:45.668Z,6.27
2019-03-19T03:25:18.308Z,6.10
2019-03-19T03:27:47.490Z,6.11
2019-03-19T03:30:18.221Z,6.14
2019-03-19T03:32:47.447Z,6.09
2019-03-19T03:35:16.584Z,6.11
2019-03-19T03:37:45.775Z,6.14
2019-03-19T03:40:16.276Z,6.33
2019-03-19T03:42:45.495Z,6.34
2019-03-19T03:45:16.783Z,6.40
2019-03-19T03:47:45.992Z,6.50
2019-03-19T03:50:16.293Z,6.62
2019-03-19T03:52:45.487Z,6.47
2019-03-19T03:55:15.580Z,6.42
2019-03-19T03:57:44.754Z,6.27
2019-03-19T04:00:17.022Z,6.32
2019-03-19T04:02:46.266Z,6.39
2019-03-19T04:05:15.612Z,6.34
2019-03-19T04:07:44.910Z,6.36
2019-03-19T04:10:16.407Z,6.40
2019-03-19T04:12:45.607Z,6.43
2019-03-19T04:15:16.676Z,6.28
2019-03-19T04:17:45.846Z,6.20
2019-03-19T04:20:16.174Z,6.18
2019-03-19T04:22:45.368Z,6.31
2019-03-19T04:25:14.677Z,6.26
2019-03-19T04:27:43.883Z,6.21
2019-03-19T04:30:20.122Z,6.11
2019-03-19T04:32:49.362Z,6.11
2019-03-19T04:35:18.509Z,6.14
2019-03-19T04:37:47.707Z,6.10
2019-03-19T04:40:17.238Z,6.04
2019-03-19T04:42:46.490Z,5.97
2019-03-19T04:45:16.692Z,5.83
2019-03-19T04:47:46.026Z,5.89
2019-03-19T04:50:16.272Z,5.92
2019-03-19T04:52:45.424Z,5.73
2019-03-19T04:55:15.442Z,5.59
2019-03-19T04:57:44.688Z,5.44
2019-03-19T05:00:16.157Z,5.08
2019-03-19T05:02:45.340Z,5.06
2019-03-19T05:05:14.531Z,5.17
2019-03-19T05:07:43.797Z,5.32
2019-03-19T05:10:19.325Z,5.36
2019-03-19T05:12:49.353Z,5.33
2019-03-19T05:15:18.567Z,5.49
2019-03-19T05:17:47.750Z,5.35
2019-03-19T05:20:18.112Z,5.35
2019-03-19T05:22:47.313Z,5.34
2019-03-19T05:25:16.490Z,5.40
2019-03-19T05:27:45.957Z,5.34
2019-03-19T05:30:19.211Z,5.42
2019-03-19T05:32:48.420Z,5.48
2019-03-19T05:35:17.613Z,5.51
2019-03-19T05:37:46.810Z,5.48
2019-03-19T05:40:16.869Z,5.53
2019-03-19T05:42:46.082Z,5.56
2019-03-19T05:45:15.848Z,5.69
2019-03-19T05:47:45.036Z,5.64
2019-03-19T05:50:16.480Z,5.65
2019-03-19T05:52:48.320Z,5.60
2019-03-19T05:55:16.616Z,5.48
2019-03-19T05:57:49.809Z,5.26
2019-03-19T06:00:19.342Z,5.18
2019-03-19T06:02:48.598Z,5.09
2019-03-19T06:05:17.796Z,5.09
2019-03-19T06:07:46.978Z,5.12
2019-03-19T06:10:16.280Z,5.17
2019-03-19T06:12:45.468Z,5.29
2019-03-19T06:15:17.477Z,5.44
2019-03-19T06:17:46.668Z,5.53
2019-03-19T06:20:20.525Z,5.63
2019-03-19T06:22:49.736Z,5.76
2019-03-19T06:25:18.996Z,6.01
2019-03-19T06:27:48.168Z,6.12
2019-03-19T06:30:22.736Z,6.10
2019-03-19T06:32:51.917Z,6.20
2019-03-19T06:35:21.176Z,6.20
2019-03-19T06:37:50.441Z,6.33
2019-03-19T06:40:23.037Z,6.60
2019-03-19T06:42:52.175Z,6.74
2019-03-19T06:45:23.256Z,6.93
2019-03-19T06:47:52.599Z,6.63
2019-03-19T06:50:22.118Z,6.81
2019-03-19T06:52:51.319Z,6.91
2019-03-19T06:55:21.156Z,6.42
2019-03-19T06:57:50.332Z,6.41
2019-03-19T07:00:23.814Z,6.04
2019-03-19T07:02:53.038Z,6.12
2019-03-19T07:05:22.864Z,6.17
2019-03-19T07:07:52.060Z,6.35
2019-03-19T07:10:21.774Z,6.32
2019-03-19T07:12:50.949Z,6.27
2019-03-19T07:15:23.615Z,6.16
2019-03-19T07:17:52.824Z,6.14
2019-03-19T07:20:26.891Z,6.16
2019-03-19T07:22:56.138Z,6.28
2019-03-19T07:25:25.316Z,6.22
2019-03-19T07:27:54.499Z,6.29
2019-03-19T07:30:24.636Z,6.32
2019-03-19T07:32:53.824Z,6.34
2019-03-19T07:35:23.017Z,6.38
2019-03-19T07:37:52.211Z,6.26
2019-03-19T07:40:21.381Z,6.32
2019-03-19T07:42:50.565Z,6.36
2019-03-19T07:45:21.170Z,6.47
2019-03-19T07:47:50.415Z,6.46
2019-03-19T07:50:23.717Z,6.43
2019-03-19T07:52:53.030Z,6.49
2019-03-19T07:55:22.230Z,6.45
2019-03-19T07:57:51.412Z,6.47
2019-03-19T08:00:23.732Z,6.50
2019-03-19T08:02:52.905Z,6.59
2019-03-19T08:05:32.238Z,6.48
2019-03-19T08:07:52.978Z,6.59
2019-03-19T08:10:22.179Z,6.53
2019-03-19T08:12:51.350Z,6.65
2019-03-19T08:15:23.492Z,6.66
2019-03-19T08:17:52.670Z,6.77
2019-03-19T08:20:21.892Z,6.78
2019-03-19T08:22:51.076Z,6.83
2019-03-19T08:25:20.260Z,6.82
2019-03-19T08:27:49.364Z,6.77
2019-03-19T08:30:28.246Z,6.73
2019-03-19T08:32:57.437Z,6.83
2019-03-19T08:35:26.624Z,6.89
2019-03-19T08:37:55.818Z,6.92
2019-03-19T08:40:24.977Z,7.05
2019-03-19T08:42:54.156Z,7.08
2019-03-19T08:45:24.599Z,7.03
2019-03-19T08:47:53.780Z,7.13
2019-03-19T08:50:23.791Z,7.19
2019-03-19T08:52:55.272Z,7.21
2019-03-19T08:55:23.836Z,7.32
2019-03-19T08:57:53.025Z,7.39
2019-03-19T09:00:27.364Z,7.20
2019-03-19T09:02:56.544Z,7.26
2019-03-19T09:05:25.724Z,7.32
2019-03-19T09:07:54.976Z,7.36
2019-03-19T09:10:24.206Z,7.51
2019-03-19T09:12:53.388Z,7.63
2019-03-19T09:15:27.726Z,7.70
2019-03-19T09:17:56.997Z,7.77
2019-03-19T09:20:26.176Z,7.88
2019-03-19T09:22:55.372Z,7.94
2019-03-19T09:25:24.573Z,7.98
2019-03-19T09:27:53.745Z,8.01
2019-03-19T09:30:24.077Z,7.86
2019-03-19T09:32:53.262Z,7.77
2019-03-19T09:35:22.500Z,7.88
2019-03-19T09:37:58.483Z,7.86
2019-03-19T09:40:22.994Z,8.00
2019-03-19T09:42:52.169Z,8.00
2019-03-19T09:45:21.412Z,8.19
2019-03-19T09:47:50.587Z,8.39
2019-03-19T09:50:24.694Z,8.48
2019-03-19T09:52:53.855Z,8.28
2019-03-19T09:55:23.116Z,8.31
2019-03-19T09:57:52.309Z,8.38
2019-03-19T10:00:23.307Z,8.56
2019-03-19T10:02:52.483Z,8.63
2019-03-19T10:05:21.654Z,8.76
2019-03-19T10:07:50.854Z,8.86
2019-03-19T10:10:21.261Z,8.74
2019-03-19T10:12:50.478Z,8.73
2019-03-19T10:15:19.727Z,8.81
2019-03-19T10:17:48.908Z,8.97
2019-03-19T10:20:22.179Z,8.83
2019-03-19T10:22:51.358Z,8.92
2019-03-19T10:25:20.551Z,9.14
2019-03-19T10:27:49.715Z,9.23
2019-03-19T10:30:24.971Z,9.04
2019-03-19T10:32:54.148Z,9.13
2019-03-19T10:35:23.337Z,9.28
2019-03-19T10:37:52.534Z,9.51
2019-03-19T10:40:22.356Z,9.64
2019-03-19T10:42:51.537Z,10.04
2019-03-19T10:45:22.814Z,10.28
2019-03-19T10:47:52.410Z,10.06
2019-03-19T10:50:26.384Z,10.27
2019-03-19T10:52:55.568Z,10.27
2019-03-19T10:55:25.729Z,10.37
2019-03-19T10:57:54.910Z,10.24
2019-03-19T11:00:27.589Z,10.18
2019-03-19T11:02:56.798Z,10.11
2019-03-19T11:05:26.343Z,10.30
2019-03-19T11:07:55.517Z,10.30
2019-03-19T11:10:24.709Z,10.35
2019-03-19T11:12:53.909Z,10.44
2019-03-19T11:15:27.185Z,10.45
2019-03-19T11:17:56.366Z,10.59
2019-03-19T11:20:25.556Z,10.30
2019-03-19T11:22:54.751Z,10.43
2019-03-19T11:25:30.812Z,10.43
2019-03-19T11:28:00.016Z,10.65
2019-03-19T11:30:30.454Z,10.79
2019-03-19T11:32:59.620Z,10.77
2019-03-19T11:35:28.932Z,10.68
2019-03-19T11:37:58.116Z,10.68
2019-03-19T11:40:27.299Z,10.75
2019-03-19T11:42:56.476Z,10.75
2019-03-19T11:45:26.026Z,10.71
2019-03-19T11:47:55.212Z,10.71
2019-03-19T11:50:28.434Z,10.61
2019-03-19T11:52:57.630Z,10.84
2019-03-19T11:55:26.879Z,10.75
2019-03-19T11:57:57.597Z,10.66
2019-03-19T12:00:37.293Z,10.66
2019-03-19T12:03:14.995Z,10.50
2019-03-19T12:05:37.719Z,10.49
2019-03-19T12:08:07.075Z,10.56
2019-03-19T12:10:36.264Z,10.69
2019-03-19T12:13:05.688Z,10.80
2019-03-19T12:15:34.897Z,10.80
2019-03-19T12:18:04.347Z,10.95
2019-03-19T12:20:33.522Z,11.06
2019-03-19T12:23:02.772Z,11.10
2019-03-19T12:25:31.888Z,11.10
2019-03-19T12:28:01.178Z,10.97
2019-03-19T12:30:30.358Z,10.97
2019-03-19T12:32:59.545Z,11.11
2019-03-19T12:35:30.787Z,10.94
2019-03-19T12:37:59.675Z,11.02
2019-03-19T12:40:36.780Z,11.02
2019-03-19T12:42:59.897Z,11.04
2019-03-19T12:45:29.075Z,11.04
2019-03-19T12:47:58.255Z,11.09
2019-03-19T12:50:27.664Z,11.09
2019-03-19T12:52:57.011Z,10.92
2019-03-19T12:55:26.146Z,10.91
2019-03-19T12:57:55.324Z,10.93
2019-03-19T13:00:34.354Z,10.88
2019-03-19T13:02:56.711Z,10.88
2019-03-19T13:05:25.819Z,10.77
2019-03-19T13:07:54.995Z,10.80
2019-03-19T13:10:24.937Z,10.78
2019-03-19T13:12:54.106Z,10.76
2019-03-19T13:15:23.287Z,10.78
2019-03-19T13:17:52.463Z,10.78
2019-03-19T13:20:22.875Z,10.88
2019-03-19T13:22:52.062Z,10.93
2019-03-19T13:25:24.952Z,10.89
2019-03-19T13:27:54.186Z,11.06
2019-03-19T13:30:27.718Z,11.06
2019-03-19T13:32:56.893Z,11.24
2019-03-19T13:35:26.080Z,11.28
2019-03-19T13:37:55.261Z,11.28
2019-03-19T13:40:24.452Z,11.43
2019-03-19T13:42:53.645Z,11.43
2019-03-19T13:45:23.885Z,11.41
2019-03-19T13:47:53.131Z,11.36
2019-03-19T13:50:22.678Z,11.27
2019-03-19T13:52:51.933Z,11.29
2019-03-19T13:55:24.683Z,11.29
2019-03-19T13:57:53.860Z,11.29
2019-03-19T14:00:23.042Z,11.29
2019-03-19T14:02:52.319Z,11.35
2019-03-19T14:05:21.442Z,11.38
2019-03-19T14:07:50.620Z,11.49
2019-03-19T14:10:20.347Z,11.49
2019-03-19T14:12:49.523Z,11.53
2019-03-19T14:15:20.560Z,11.59
2019-03-19T14:17:49.732Z,11.62
2019-03-19T14:20:18.995Z,11.57
2019-03-19T14:22:48.168Z,11.50
2019-03-19T14:25:17.681Z,11.73
2019-03-19T14:27:46.870Z,11.73
2019-03-19T14:30:17.629Z,11.79
2019-03-19T14:32:46.893Z,11.80
2019-03-19T14:35:16.051Z,11.75
2019-03-19T14:37:45.672Z,11.76
2019-03-19T14:40:17.216Z,11.64
2019-03-19T14:42:46.522Z,11.60
2019-03-19T14:45:16.730Z,11.54
2019-03-19T14:47:45.900Z,11.61
2019-03-19T14:50:19.987Z,11.59
2019-03-19T14:52:49.160Z,11.54
2019-03-19T14:55:18.403Z,11.55
2019-03-19T14:57:47.927Z,11.62
2019-03-19T15:00:18.352Z,11.73
2019-03-19T15:02:47.602Z,11.79
2019-03-19T15:05:16.770Z,11.80
2019-03-19T15:07:45.959Z,11.72
2019-03-19T15:10:20.170Z,11.66
2019-03-19T15:12:49.338Z,11.64
2019-03-19T15:15:22.025Z,11.58
2019-03-19T15:17:51.778Z,11.72
2019-03-19T15:20:25.495Z,11.69
2019-03-19T15:22:54.741Z,11.69
2019-03-19T15:25:23.982Z,11.58
2019-03-19T15:27:53.436Z,11.60
2019-03-19T15:30:22.619Z,11.62
2019-03-19T15:32:51.804Z,11.57
2019-03-19T15:35:20.986Z,11.61
2019-03-19T15:37:50.164Z,11.59
2019-03-19T15:40:20.184Z,11.53
2019-03-19T15:42:49.417Z,11.47
2019-03-19T15:45:20.811Z,11.48
2019-03-19T15:47:49.996Z,11.52
2019-03-19T15:50:19.176Z,11.54
2019-03-19T15:52:48.462Z,11.51
2019-03-19T15:55:17.640Z,11.43
2019-03-19T15:57:46.817Z,11.37
2019-03-19T16:00:20.123Z,11.39
2019-03-19T16:02:49.298Z,11.47
2019-03-19T16:05:18.483Z,11.38
2019-03-19T16:07:47.668Z,11.38
2019-03-19T16:10:17.782Z,11.36
2019-03-19T16:12:46.953Z,11.34
2019-03-19T16:15:19.958Z,11.29
2019-03-19T16:17:49.126Z,11.29
2019-03-19T16:20:22.499Z,11.27
2019-03-19T16:22:51.665Z,11.31
2019-03-19T16:25:20.847Z,11.33
2019-03-19T16:27:53.643Z,11.31
2019-03-19T16:30:22.866Z,11.42
2019-03-19T16:32:52.086Z,11.38
2019-03-19T16:35:21.269Z,11.28
2019-03-19T16:37:50.475Z,11.28
2019-03-19T16:40:23.396Z,11.23
2019-03-19T16:42:52.569Z,11.33
2019-03-19T16:45:21.842Z,11.33
2019-03-19T16:47:51.015Z,11.38
2019-03-19T16:50:22.399Z,11.38
2019-03-19T16:52:51.571Z,11.32
2019-03-19T16:55:23.797Z,11.25
2019-03-19T16:57:53.021Z,11.21
2019-03-19T17:00:24.004Z,11.17
2019-03-19T17:02:53.180Z,11.03
2019-03-19T17:05:22.370Z,10.95
2019-03-19T17:07:51.611Z,10.98
2019-03-19T17:10:26.177Z,10.97
2019-03-19T17:12:55.363Z,10.97
2019-03-19T17:15:24.523Z,11.03
2019-03-19T17:17:53.737Z,11.04
2019-03-19T17:20:22.921Z,11.10
2019-03-19T17:22:52.120Z,11.10
2019-03-19T17:25:27.757Z,11.21
2019-03-19T17:27:56.936Z,11.21
2019-03-19T17:30:30.830Z,11.08
2019-03-19T17:33:00.002Z,10.99
2019-03-19T17:35:29.230Z,10.99
2019-03-19T17:37:58.389Z,10.94
2019-03-19T17:40:27.582Z,10.93
2019-03-19T17:42:56.798Z,10.93
2019-03-19T17:45:25.940Z,10.93
2019-03-19T17:47:55.151Z,10.83
2019-03-19T17:50:32.635Z,10.78
2019-03-19T17:53:01.834Z,10.68
2019-03-19T17:55:31.004Z,10.65
2019-03-19T17:58:00.180Z,10.68
2019-03-19T18:00:33.747Z,10.68
2019-03-19T18:03:07.344Z,10.64
2019-03-19T18:05:36.539Z,10.64
2019-03-19T18:08:05.914Z,10.70
2019-03-19T18:10:35.168Z,10.70
2019-03-19T18:13:06.505Z,10.63
2019-03-19T18:15:35.230Z,10.61
2019-03-19T18:18:04.648Z,10.59
2019-03-19T18:20:33.827Z,10.70
2019-03-19T18:23:03.233Z,10.48
2019-03-19T18:25:32.411Z,10.48
2019-03-19T18:28:01.589Z,10.53
2019-03-19T18:30:30.788Z,10.42
2019-03-19T18:32:59.969Z,10.42
2019-03-19T18:35:29.136Z,10.41
2019-03-19T18:37:58.320Z,10.43
2019-03-19T18:40:27.491Z,10.43
2019-03-19T18:42:56.661Z,10.56
2019-03-19T18:45:25.878Z,10.64
2019-03-19T18:47:55.134Z,10.53
2019-03-19T18:50:24.487Z,10.59
2019-03-19T18:52:53.664Z,10.59
2019-03-19T18:55:22.844Z,10.65
2019-03-19T18:57:52.033Z,10.58
2019-03-19T19:00:24.796Z,10.56
2019-03-19T19:02:53.984Z,10.62
2019-03-19T19:05:24.692Z,10.62
2019-03-19T19:07:53.872Z,10.54
2019-03-19T19:10:23.078Z,10.54
2019-03-19T19:12:52.264Z,10.55
2019-03-19T19:15:22.582Z,10.55
2019-03-19T19:17:51.842Z,10.54
2019-03-19T19:20:21.094Z,10.54
2019-03-19T19:22:50.293Z,10.48
2019-03-19T19:25:23.642Z,10.36
2019-03-19T19:27:52.823Z,10.27
2019-03-19T19:30:26.059Z,10.30
2019-03-19T19:33:01.463Z,10.30
2019-03-19T19:35:26.073Z,10.18
2019-03-19T19:37:55.248Z,10.19
2019-03-19T19:40:24.445Z,10.19
2019-03-19T19:42:53.653Z,10.20
2019-03-19T19:45:22.856Z,10.09
2019-03-19T19:47:52.089Z,10.07
2019-03-19T19:50:22.527Z,10.01
2019-03-19T19:52:51.734Z,10.09
2019-03-19T19:55:20.924Z,10.09
2019-03-19T19:57:50.461Z,10.12
2019-03-19T20:00:20.890Z,10.18
2019-03-19T20:02:50.139Z,10.15
2019-03-19T20:05:19.330Z,10.15
2019-03-19T20:07:48.496Z,10.10
2019-03-19T20:10:20.208Z,10.23
2019-03-19T20:12:49.385Z,10.23
2019-03-19T20:15:18.563Z,10.26
2019-03-19T20:17:47.762Z,10.14
2019-03-19T20:20:18.689Z,10.14
2019-03-19T20:22:47.892Z,10.01
2019-03-19T20:25:17.075Z,10.01
2019-03-19T20:27:46.316Z,9.93
2019-03-19T20:30:23.203Z,9.84
2019-03-19T20:32:52.454Z,9.84
2019-03-19T20:35:21.690Z,9.83
2019-03-19T20:37:50.865Z,9.83
2019-03-19T20:40:20.183Z,9.87
2019-03-19T20:42:49.344Z,9.78
2019-03-19T20:45:20.058Z,9.74
2019-03-19T20:47:49.253Z,9.71
2019-03-19T20:50:21.262Z,9.72
2019-03-19T20:52:50.436Z,9.72
2019-03-19T20:55:19.603Z,9.71
2019-03-19T20:57:48.731Z,9.62
2019-03-19T21:00:18.561Z,9.71
2019-03-19T21:02:47.802Z,9.76
2019-03-19T21:05:17.001Z,9.77
2019-03-19T21:07:46.183Z,9.83
2019-03-19T21:10:19.976Z,9.88
2019-03-19T21:12:49.460Z,9.94
2019-03-19T21:15:21.685Z,9.99
2019-03-19T21:17:50.955Z,10.07
2019-03-19T21:20:20.207Z,10.07
2019-03-19T21:22:49.442Z,10.06
2019-03-19T21:25:18.647Z,9.96
2019-03-19T21:27:47.852Z,9.94
2019-03-19T21:30:20.563Z,10.01
2019-03-19T21:32:49.745Z,9.96
2019-03-19T21:35:27.815Z,10.09
2019-03-19T21:37:57.025Z,10.09
2019-03-19T21:40:26.223Z,10.03
2019-03-19T21:42:55.425Z,9.93
2019-03-19T21:45:24.630Z,10.00
2019-03-19T21:47:53.832Z,9.97
2019-03-19T21:50:24.352Z,9.90
2019-03-19T21:52:53.530Z,9.75
2019-03-19T21:55:22.719Z,9.75
2019-03-19T21:57:51.902Z,9.76
2019-03-19T22:00:25.361Z,9.76
2019-03-19T22:02:54.534Z,9.78
2019-03-19T22:05:25.762Z,9.68
2019-03-19T22:07:55.003Z,9.67
2019-03-19T22:10:24.170Z,9.73
2019-03-19T22:12:53.482Z,9.60
2019-03-19T22:15:24.748Z,9.67
2019-03-19T22:17:53.924Z,9.69
2019-03-19T22:20:23.111Z,9.60
2019-03-19T22:22:52.292Z,9.55
2019-03-19T22:25:21.478Z,9.49
2019-03-19T22:27:50.672Z,9.47
2019-03-19T22:30:20.587Z,9.55
2019-03-19T22:32:49.832Z,9.53
2019-03-19T22:35:19.025Z,9.60
2019-03-19T22:37:48.210Z,9.52
2019-03-19T22:40:18.042Z,9.55
2019-03-19T22:42:47.495Z,9.54
2019-03-19T22:45:18.584Z,9.53
2019-03-19T22:47:47.845Z,9.47
2019-03-19T22:50:18.901Z,9.46
2019-03-19T22:52:48.144Z,9.51
2019-03-19T22:55:28.147Z,9.51
2019-03-19T22:57:48.216Z,9.59
2019-03-19T23:00:23.598Z,9.61
2019-03-19T23:02:52.804Z,9.49
2019-03-19T23:05:21.982Z,9.44
2019-03-19T23:07:51.158Z,9.43
2019-03-19T23:10:20.346Z,9.45
2019-03-19T23:12:49.518Z,9.71
2019-03-19T23:15:19.190Z,9.71
2019-03-19T23:17:48.375Z,9.63
2019-03-19T23:20:17.558Z,9.64
2019-03-19T23:22:46.750Z,9.65
2019-03-19T23:25:15.994Z,9.65
2019-03-19T23:27:45.186Z,9.64
2019-03-19T23:30:18.628Z,9.56
2019-03-19T23:32:47.798Z,9.56
2019-03-19T23:35:16.971Z,9.53
2019-03-19T23:37:46.271Z,9.59
2019-03-19T23:40:17.071Z,9.54
2019-03-19T23:42:46.252Z,9.52
2019-03-19T23:45:15.516Z,9.61
2019-03-19T23:47:44.712Z,9.74
2019-03-19T23:50:18.810Z,9.88
2019-03-19T23:52:48.338Z,9.65
2019-03-19T23:55:17.520Z,9.65
2019-03-19T23:57:46.706Z,9.68
